createdAt,value
2023-03-29T00:00:40.657Z,98486.09
2023-03-29T00:01:42.902Z,98487.34
2023-03-29T00:02:45.968Z,98489.36
2023-03-29T00:03:48.091Z,98494.91
2023-03-29T00:04:50.077Z,98488.60
2023-03-29T00:05:52.372Z,98506.48
2023-03-29T00:06:54.756Z,98494.14
2023-03-29T00:07:58.860Z,98483.06
2023-03-29T00:09:01.338Z,98498.92
2023-03-29T00:10:05.091Z,98476.77
2023-03-29T00:11:07.352Z,98487.84
2023-03-29T00:12:09.881Z,98476.77
2023-03-29T00:13:11.853Z,98507.23
2023-03-29T00:14:13.815Z,98486.33
2023-03-29T00:15:16.267Z,98494.64
2023-03-29T00:16:18.666Z,98487.08
2023-03-29T00:17:21.189Z,98491.86
2023-03-29T00:18:23.146Z,98482.03
2023-03-29T00:19:25.220Z,98495.89
2023-03-29T00:20:27.948Z,98503.44
2023-03-29T00:21:30.186Z,98486.06
2023-03-29T00:22:32.234Z,98493.12
2023-03-29T00:23:34.186Z,98485.56
2023-03-29T00:24:36.170Z,98490.34
2023-03-29T00:25:38.651Z,98497.41
2023-03-29T00:26:40.634Z,98484.80
2023-03-29T00:27:42.559Z,98488.34
2023-03-29T00:28:44.988Z,98496.38
2023-03-29T00:29:48.188Z,98501.16
2023-03-29T00:30:50.496Z,98490.84
2023-03-29T00:31:52.946Z,98497.90
2023-03-29T00:32:55.961Z,98518.05
2023-03-29T00:33:59.831Z,98497.14
2023-03-29T00:35:05.288Z,98510.99
2023-03-29T00:36:09.667Z,98510.23
2023-03-29T00:37:12.392Z,98518.55
2023-03-29T00:38:15.260Z,98517.78
2023-03-29T00:39:17.380Z,98513.49
2023-03-29T00:40:19.879Z,98520.28
2023-03-29T00:41:22.923Z,98511.98
2023-03-29T00:42:25.629Z,98506.44
2023-03-29T00:43:27.592Z,98495.36
2023-03-29T00:46:02.481Z,98510.55
2023-03-29T00:47:05.300Z,98520.28
2023-03-29T00:48:10.857Z,98517.52
2023-03-29T00:49:13.294Z,98528.59
2023-03-29T00:50:22.588Z,98529.36
2023-03-29T00:51:27.105Z,98534.89
2023-03-29T00:52:30.494Z,98545.22
2023-03-29T00:53:37.504Z,98527.08
2023-03-29T00:54:40.590Z,98536.67
2023-03-29T00:55:59.837Z,98547.75
2023-03-29T00:57:01.906Z,98546.47
2023-03-29T00:58:06.006Z,98550.52
2023-03-29T00:59:16.619Z,98542.21
2023-03-29T01:00:21.094Z,98549.00
2023-03-29T01:01:29.318Z,98564.38
2023-03-29T01:02:32.089Z,98561.60
2023-03-29T01:03:37.966Z,98569.91
2023-03-29T01:05:02.046Z,98575.45
2023-03-29T01:06:06.155Z,98569.91
2023-03-29T01:07:25.636Z,98580.99
2023-03-29T01:09:51.310Z,98586.33
2023-03-29T01:11:09.597Z,98587.52
2023-03-29T01:12:16.912Z,98597.83
2023-03-29T01:14:38.869Z,98599.91
2023-03-29T01:15:41.655Z,98604.63
2023-03-29T01:16:44.101Z,98592.78
2023-03-29T01:17:46.273Z,98603.86
2023-03-29T01:18:49.231Z,98599.57
2023-03-29T01:20:01.036Z,98611.90
2023-03-29T01:21:27.138Z,98625.75
2023-03-29T01:22:38.920Z,98617.93
2023-03-29T01:23:50.685Z,98619.94
2023-03-29T01:26:45.235Z,98610.19
2023-03-29T01:27:55.468Z,98614.89
2023-03-29T01:29:01.259Z,98611.84
2023-03-29T01:31:20.957Z,98613.70
2023-03-29T01:33:45.895Z,98623.03
2023-03-29T01:34:51.687Z,98609.08
2023-03-29T01:36:01.188Z,98618.14
2023-03-29T01:38:53.207Z,98614.23
2023-03-29T01:39:55.837Z,98625.20
2023-03-29T01:40:58.401Z,98625.20
2023-03-29T01:42:13.854Z,98627.22
2023-03-29T01:44:46.647Z,98623.03
2023-03-29T01:47:16.396Z,98622.00
2023-03-29T01:48:28.165Z,98627.44
2023-03-29T01:49:33.663Z,98630.47
2023-03-29T01:52:09.320Z,98624.55
2023-03-29T01:53:21.185Z,98629.22
2023-03-29T01:54:27.250Z,98639.55
2023-03-29T01:55:33.459Z,98641.55
2023-03-29T01:56:39.765Z,98646.33
2023-03-29T01:57:43.795Z,98646.33
2023-03-29T01:58:48.789Z,98643.56
2023-03-29T01:59:50.761Z,98654.64
2023-03-29T02:00:54.138Z,98662.95
2023-03-29T02:01:58.313Z,98670.02
2023-03-29T02:03:06.088Z,98662.46
2023-03-29T02:04:10.714Z,98665.23
2023-03-29T02:05:13.691Z,98665.99
2023-03-29T02:06:18.797Z,98670.77
2023-03-29T02:07:23.307Z,98673.54
2023-03-29T02:08:25.729Z,98665.72
2023-03-29T02:09:28.402Z,98672.02
2023-03-29T02:10:32.121Z,98672.02
2023-03-29T02:11:35.252Z,98674.52
2023-03-29T02:12:37.340Z,98679.30
2023-03-29T02:13:39.315Z,98677.02
2023-03-29T02:14:41.280Z,98679.02
2023-03-29T02:15:47.367Z,98681.03
2023-03-29T02:16:49.466Z,98692.11
2023-03-29T02:17:51.585Z,98694.39
2023-03-29T02:18:55.185Z,98696.40
2023-03-29T02:22:32.477Z,98690.37
2023-03-29T02:26:53.513Z,98696.67
2023-03-29T02:27:55.669Z,98702.21
2023-03-29T02:28:58.198Z,98699.44
2023-03-29T02:30:00.263Z,98714.05
2023-03-29T02:32:30.173Z,98698.19
2023-03-29T02:34:52.027Z,98702.34
2023-03-29T02:35:58.713Z,98698.68
2023-03-29T02:37:03.864Z,98712.53
2023-03-29T02:38:07.824Z,98699.92
2023-03-29T02:39:10.793Z,98703.19
2023-03-29T02:40:13.082Z,98701.17
2023-03-29T02:41:15.356Z,98704.46
2023-03-29T02:42:17.697Z,98702.91
2023-03-29T02:43:19.727Z,98703.70
2023-03-29T02:44:26.249Z,98708.45
2023-03-29T02:45:29.780Z,98697.86
2023-03-29T02:46:33.734Z,98697.86
2023-03-29T02:47:38.351Z,98706.65
2023-03-29T02:48:40.649Z,98714.68
2023-03-29T02:49:43.304Z,98721.47
2023-03-29T02:50:47.180Z,98701.32
2023-03-29T02:51:50.815Z,98723.95
2023-03-29T02:52:55.283Z,98718.42
2023-03-29T02:54:12.189Z,98715.65
2023-03-29T02:55:15.967Z,98701.05
2023-03-29T02:56:19.994Z,98714.13
2023-03-29T02:57:22.233Z,98709.84
2023-03-29T02:58:24.492Z,98711.08
2023-03-29T02:59:27.718Z,98705.55
2023-03-29T03:00:29.938Z,98710.32
2023-03-29T03:01:31.747Z,98709.56
2023-03-29T03:02:34.544Z,98708.80
2023-03-29T03:03:37.256Z,98710.81
2023-03-29T03:04:39.369Z,98708.80
2023-03-29T03:05:41.572Z,98706.52
2023-03-29T03:06:43.819Z,98708.52
2023-03-29T03:07:45.712Z,98702.22
2023-03-29T03:08:48.785Z,98709.77
2023-03-29T03:09:51.335Z,98711.02
2023-03-29T03:10:53.653Z,98710.25
2023-03-29T03:11:56.123Z,98710.25
2023-03-29T03:13:00.144Z,98709.52
2023-03-29T03:14:03.886Z,98706.75
2023-03-29T03:15:07.689Z,98704.99
2023-03-29T03:16:12.406Z,98719.66
2023-03-29T03:17:16.277Z,98720.02
2023-03-29T03:18:18.414Z,98712.05
2023-03-29T03:19:20.902Z,98712.66
2023-03-29T03:20:24.698Z,98718.02
2023-03-29T03:21:27.028Z,98715.85
2023-03-29T03:22:29.327Z,98710.88
2023-03-29T03:23:32.083Z,98717.02
2023-03-29T03:24:34.838Z,98712.05
2023-03-29T03:25:37.109Z,98718.94
2023-03-29T03:26:39.715Z,98725.05
2023-03-29T03:27:43.148Z,98726.13
2023-03-29T03:28:45.803Z,98710.53
2023-03-29T03:29:49.721Z,98722.43
2023-03-29T03:30:56.974Z,98729.27
2023-03-29T03:32:09.382Z,98723.23
2023-03-29T03:33:29.658Z,98735.58
2023-03-29T03:34:50.147Z,98733.30
2023-03-29T03:35:52.166Z,98726.72
2023-03-29T03:36:54.413Z,98730.48
2023-03-29T03:37:56.961Z,98739.30
2023-03-29T03:38:58.769Z,98725.16
2023-03-29T03:40:01.218Z,98738.03
2023-03-29T03:41:05.619Z,98732.97
2023-03-29T03:42:08.987Z,98735.48
2023-03-29T03:43:12.873Z,98736.46
2023-03-29T03:44:15.677Z,98731.13
2023-03-29T03:45:18.220Z,98733.64
2023-03-29T03:46:29.596Z,98740.16
2023-03-29T03:47:33.696Z,98734.84
2023-03-29T03:48:38.056Z,98744.93
2023-03-29T03:49:41.804Z,98738.35
2023-03-29T03:50:52.664Z,98744.88
2023-03-29T03:51:58.685Z,98752.16
2023-03-29T03:53:00.782Z,98742.05
2023-03-29T03:54:04.635Z,98744.55
2023-03-29T03:55:10.167Z,98749.06
2023-03-29T03:56:20.309Z,98750.31
2023-03-29T03:57:39.110Z,98745.78
2023-03-29T03:58:43.981Z,98743.49
2023-03-29T03:59:46.071Z,98766.91
2023-03-29T04:00:50.231Z,98756.31
2023-03-29T04:01:57.841Z,98747.73
2023-03-29T04:03:00.643Z,98752.51
2023-03-29T04:04:03.325Z,98770.12
2023-03-29T04:05:06.721Z,98760.77
2023-03-29T04:06:11.107Z,98768.80
2023-03-29T04:07:31.306Z,98763.75
2023-03-29T04:09:47.809Z,98777.19
2023-03-29T04:10:55.777Z,98782.63
2023-03-29T04:12:06.853Z,98787.89
2023-03-29T04:13:09.102Z,98785.12
2023-03-29T04:14:12.988Z,98784.36
2023-03-29T04:15:16.850Z,98782.84
2023-03-29T04:16:20.883Z,98781.31
2023-03-29T04:17:23.310Z,98795.66
2023-03-29T04:18:36.230Z,98783.81
2023-03-29T04:19:39.170Z,98805.22
2023-03-29T04:20:42.364Z,98806.73
2023-03-29T04:21:45.748Z,98805.98
2023-03-29T04:22:47.806Z,98794.89
2023-03-29T04:23:51.010Z,98800.44
2023-03-29T04:24:53.099Z,98810.00
2023-03-29T04:26:00.757Z,98808.75
2023-03-29T04:27:05.040Z,98811.52
2023-03-29T04:28:07.505Z,98815.54
2023-03-29T04:29:17.473Z,98805.22
2023-03-29T04:30:21.625Z,98816.02
2023-03-29T04:31:25.700Z,98815.75
2023-03-29T04:32:33.539Z,98818.24
2023-03-29T04:33:41.373Z,98815.19
2023-03-29T04:34:43.816Z,98808.92
2023-03-29T04:35:46.349Z,98828.80
2023-03-29T04:36:50.332Z,98812.17
2023-03-29T04:37:54.224Z,98816.19
2023-03-29T04:38:56.854Z,98818.20
2023-03-29T04:40:00.785Z,98814.39
2023-03-29T04:41:04.934Z,98813.34
2023-03-29T04:42:24.452Z,98814.88
2023-03-29T04:43:26.672Z,98820.90
2023-03-29T04:44:33.397Z,98816.12
2023-03-29T04:45:36.925Z,98814.59
2023-03-29T04:46:40.959Z,98826.44
2023-03-29T04:47:51.849Z,98820.14
2023-03-29T04:48:54.291Z,98831.98
2023-03-29T04:49:58.645Z,98829.69
2023-03-29T04:51:03.700Z,98834.47
2023-03-29T04:52:07.192Z,98832.19
2023-03-29T04:53:09.305Z,98834.19
2023-03-29T04:54:11.317Z,98831.91
2023-03-29T04:55:15.373Z,98844.23
2023-03-29T04:56:31.289Z,98835.64
2023-03-29T04:57:35.223Z,98845.19
2023-03-29T04:58:39.541Z,98836.88
2023-03-29T04:59:42.229Z,98838.89
2023-03-29T05:01:03.204Z,98838.89
2023-03-29T05:02:13.333Z,98839.66
2023-03-29T05:03:17.570Z,98834.11
2023-03-29T05:04:24.741Z,98846.72
2023-03-29T05:05:28.780Z,98843.95
2023-03-29T05:06:31.406Z,98847.48
2023-03-29T05:07:33.569Z,98851.49
2023-03-29T05:08:36.393Z,98856.27
2023-03-29T05:09:40.971Z,98860.31
2023-03-29T05:10:44.464Z,98847.20
2023-03-29T05:11:48.162Z,98858.28
2023-03-29T05:12:50.144Z,98851.24
2023-03-29T05:13:51.961Z,98845.19
2023-03-29T05:14:54.280Z,98858.00
2023-03-29T05:15:58.236Z,98850.48
2023-03-29T05:17:01.620Z,98854.02
2023-03-29T05:18:04.834Z,98856.78
2023-03-29T05:19:07.945Z,98857.55
2023-03-29T05:20:13.644Z,98861.81
2023-03-29T05:21:17.437Z,98855.51
2023-03-29T05:22:20.444Z,98852.25
2023-03-29T05:23:23.058Z,98864.58
2023-03-29T05:24:43.508Z,98849.23
2023-03-29T05:25:47.832Z,98852.00
2023-03-29T05:26:50.428Z,98858.00
2023-03-29T05:27:52.730Z,98849.69
2023-03-29T05:28:54.771Z,98853.25
2023-03-29T05:29:57.702Z,98844.94
2023-03-29T05:31:03.405Z,98848.47
2023-03-29T05:32:06.579Z,98856.78
2023-03-29T05:33:09.120Z,98856.78
2023-03-29T05:34:11.113Z,98860.77
2023-03-29T05:35:15.435Z,98860.77
2023-03-29T05:36:18.109Z,98850.94
2023-03-29T05:37:22.521Z,98849.69
2023-03-29T05:38:26.294Z,98860.00
2023-03-29T05:39:28.350Z,98858.00
2023-03-29T05:40:31.960Z,98859.55
2023-03-29T05:41:35.736Z,98863.08
2023-03-29T05:42:58.061Z,98871.84
2023-03-29T05:44:00.093Z,98866.30
2023-03-29T05:45:04.978Z,98862.77
2023-03-29T05:46:08.670Z,98864.02
2023-03-29T05:47:11.242Z,98868.80
2023-03-29T05:48:14.410Z,98866.02
2023-03-29T05:49:17.619Z,98869.87
2023-03-29T05:50:37.288Z,98867.86
2023-03-29T05:51:40.389Z,98878.43
2023-03-29T05:52:42.433Z,98872.13
2023-03-29T05:53:45.033Z,98876.42
2023-03-29T05:54:46.976Z,98862.32
2023-03-29T05:55:50.555Z,98868.62
2023-03-29T05:56:53.772Z,98876.17
2023-03-29T05:57:55.900Z,98891.52
2023-03-29T05:59:01.039Z,98864.33
2023-03-29T06:00:06.695Z,98879.70
2023-03-29T06:01:15.431Z,98875.41
2023-03-29T06:02:34.340Z,98873.41
2023-03-29T06:03:38.747Z,98871.84
2023-03-29T06:04:41.253Z,98886.94
2023-03-29T06:07:17.909Z,98885.77
2023-03-29T06:08:21.766Z,98884.84
2023-03-29T06:09:25.648Z,98887.62
2023-03-29T06:10:29.898Z,98890.39
2023-03-29T06:11:33.679Z,98901.47
2023-03-29T06:12:38.540Z,98899.45
2023-03-29T06:13:41.972Z,98891.15
2023-03-29T06:14:44.335Z,98904.52
2023-03-29T06:15:48.203Z,98909.57
2023-03-29T06:16:51.112Z,98905.28
2023-03-29T06:17:53.503Z,98909.29
2023-03-29T06:18:55.510Z,98908.05
2023-03-29T06:19:57.446Z,98895.45
2023-03-29T06:21:01.127Z,98912.82
2023-03-29T06:22:04.446Z,98907.77
2023-03-29T06:23:08.079Z,98915.31
2023-03-29T06:24:10.107Z,98918.08
2023-03-29T06:25:14.116Z,98909.77
2023-03-29T06:26:17.399Z,98907.77
2023-03-29T06:27:19.813Z,98912.34
2023-03-29T06:28:22.830Z,98918.64
2023-03-29T06:29:25.863Z,98919.41
2023-03-29T06:30:29.512Z,98920.94
2023-03-29T06:31:32.021Z,98919.41
2023-03-29T06:32:34.789Z,98929.72
2023-03-29T06:33:39.612Z,98924.19
2023-03-29T06:34:43.494Z,98927.44
2023-03-29T06:35:56.234Z,98924.38
2023-03-29T06:37:01.768Z,98931.92
2023-03-29T06:38:03.831Z,98940.23
2023-03-29T06:39:08.097Z,98959.34
2023-03-29T06:40:17.853Z,98942.72
2023-03-29T06:41:20.622Z,98941.95
2023-03-29T06:43:46.089Z,98946.17
2023-03-29T06:44:51.140Z,98950.74
2023-03-29T06:45:54.865Z,98956.76
2023-03-29T06:47:01.461Z,98953.52
2023-03-29T06:48:04.522Z,98955.52
2023-03-29T06:49:07.673Z,98949.22
2023-03-29T06:50:15.480Z,98961.53
2023-03-29T06:51:23.202Z,98961.05
2023-03-29T06:52:25.859Z,98964.59
2023-03-29T06:53:27.879Z,98971.37
2023-03-29T06:54:31.811Z,98964.59
2023-03-29T06:55:35.589Z,98965.06
2023-03-29T06:56:39.996Z,98970.61
2023-03-29T06:57:44.346Z,98975.66
2023-03-29T06:58:47.474Z,98963.06
2023-03-29T06:59:51.337Z,98968.59
2023-03-29T07:01:01.675Z,98978.15
2023-03-29T07:02:05.876Z,98971.37
2023-03-29T07:03:09.935Z,98974.14
2023-03-29T07:04:12.546Z,98974.14
2023-03-29T07:05:33.417Z,98974.14
2023-03-29T07:06:36.622Z,98977.67
2023-03-29T07:07:40.180Z,98991.04
2023-03-29T07:08:46.058Z,98985.50
2023-03-29T07:09:53.821Z,98995.33
2023-03-29T07:12:13.504Z,98994.28
2023-03-29T07:13:15.516Z,98996.86
2023-03-29T07:14:18.361Z,98994.86
2023-03-29T07:15:22.356Z,99004.69
2023-03-29T07:16:32.343Z,99008.98
2023-03-29T07:17:54.499Z,98996.38
2023-03-29T07:18:56.906Z,99005.45
2023-03-29T07:20:00.730Z,99004.98
2023-03-29T07:21:13.371Z,99012.52
2023-03-29T07:22:15.685Z,99004.98
2023-03-29T07:23:22.626Z,99017.58
2023-03-29T07:24:25.935Z,99017.58
2023-03-29T07:25:28.579Z,99021.11
2023-03-29T07:26:30.930Z,99021.11
2023-03-29T07:27:33.211Z,99023.88
2023-03-29T07:28:35.588Z,99023.88
2023-03-29T07:29:37.527Z,99023.88
2023-03-29T07:30:39.727Z,99022.64
2023-03-29T07:31:43.580Z,99023.13
2023-03-29T07:33:04.074Z,99029.42
2023-03-29T07:34:09.221Z,99031.72
2023-03-29T07:35:13.098Z,99035.73
2023-03-29T07:36:15.447Z,99028.18
2023-03-29T07:37:17.599Z,99040.50
2023-03-29T07:38:20.278Z,99040.50
2023-03-29T07:39:24.794Z,99041.74
2023-03-29T07:40:29.020Z,99046.05
2023-03-29T07:41:33.644Z,99052.34
2023-03-29T07:42:38.632Z,99053.88
2023-03-29T07:43:41.161Z,99042.80
2023-03-29T07:44:43.508Z,99049.89
2023-03-29T07:45:45.454Z,99044.35
2023-03-29T07:46:48.082Z,99050.66
2023-03-29T07:47:55.675Z,99054.19
2023-03-29T07:48:58.239Z,99053.88
2023-03-29T07:50:01.083Z,99051.87
2023-03-29T07:51:05.989Z,99064.19
2023-03-29T07:52:09.825Z,99065.43
2023-03-29T07:53:12.373Z,99059.89
2023-03-29T07:54:15.390Z,99070.48
2023-03-29T07:55:25.040Z,99052.66
2023-03-29T07:56:28.989Z,99077.08
2023-03-29T07:57:50.103Z,99072.31
2023-03-29T07:58:52.855Z,99079.37
2023-03-29T07:59:54.993Z,99070.30
2023-03-29T08:00:59.094Z,99069.06
2023-03-29T08:02:10.572Z,99074.59
2023-03-29T08:03:14.625Z,99072.12
2023-03-29T08:04:17.170Z,99072.88
2023-03-29T08:05:37.828Z,99075.65
2023-03-29T08:06:29.295Z,99078.42
2023-03-29T08:07:31.557Z,99081.95
2023-03-29T08:08:44.503Z,99082.72
2023-03-29T08:09:48.676Z,99089.02
2023-03-29T08:10:52.660Z,99085.78
2023-03-29T08:12:09.679Z,99077.47
2023-03-29T08:13:13.494Z,99078.52
2023-03-29T08:14:33.142Z,99084.82
2023-03-29T08:15:39.600Z,99084.05
2023-03-29T08:16:43.714Z,99083.30
2023-03-29T08:17:47.589Z,99083.30
2023-03-29T08:18:50.375Z,99088.36
2023-03-29T08:19:53.506Z,99091.12
2023-03-29T08:20:57.509Z,99086.34
2023-03-29T08:22:00.286Z,99105.74
2023-03-29T08:23:04.251Z,99104.79
2023-03-29T08:24:08.009Z,99099.72
2023-03-29T08:25:14.546Z,99106.80
2023-03-29T08:26:19.804Z,99108.32
2023-03-29T08:27:22.486Z,99100.02
2023-03-29T08:28:25.403Z,99107.08
2023-03-29T08:29:27.457Z,99113.39
2023-03-29T08:30:29.971Z,99104.59
2023-03-29T08:31:32.676Z,99119.22
2023-03-29T08:32:36.371Z,99120.72
2023-03-29T08:33:38.406Z,99113.93
2023-03-29T08:34:44.936Z,99116.98
2023-03-29T08:35:52.017Z,99120.05
2023-03-29T08:36:56.736Z,99116.03
2023-03-29T08:38:03.824Z,99116.80
2023-03-29T08:39:06.128Z,99121.86
2023-03-29T08:40:12.610Z,99116.32
2023-03-29T08:41:48.566Z,99115.08
2023-03-29T08:42:57.292Z,99124.92
2023-03-29T08:44:07.436Z,99121.67
2023-03-29T08:45:41.037Z,99131.52
2023-03-29T08:47:09.875Z,99123.20
2023-03-29T08:48:37.396Z,99123.20
2023-03-29T08:49:40.760Z,99134.28
2023-03-29T08:50:49.072Z,99121.20
2023-03-29T08:51:55.334Z,99127.50
2023-03-29T08:53:00.436Z,99121.95
2023-03-29T08:54:25.919Z,99135.81
2023-03-29T08:55:40.871Z,99128.74
2023-03-29T08:58:20.060Z,99124.31
2023-03-29T08:59:29.371Z,99127.41
2023-03-29T09:00:49.036Z,99122.34
2023-03-29T09:01:52.616Z,99123.11
2023-03-29T09:02:55.574Z,99134.19
2023-03-29T09:04:06.282Z,99138.20
2023-03-29T09:05:30.392Z,99138.97
2023-03-29T09:06:34.589Z,99134.66
2023-03-29T09:07:38.469Z,99135.43
2023-03-29T09:08:44.316Z,99140.20
2023-03-29T09:09:46.584Z,99131.13
2023-03-29T09:12:37.888Z,99129.31
2023-03-29T09:15:14.704Z,99127.78
2023-03-29T09:16:22.402Z,99140.97
2023-03-29T09:17:34.890Z,99131.13
2023-03-29T09:20:26.595Z,99138.88
2023-03-29T09:23:11.730Z,99142.66
2023-03-29T09:24:23.363Z,99145.56
2023-03-29T09:25:54.173Z,99143.08
2023-03-29T09:27:02.237Z,99144.61
2023-03-29T09:29:45.430Z,99145.53
2023-03-29T09:30:55.099Z,99150.62
2023-03-29T09:31:57.354Z,99156.93
2023-03-29T09:33:12.031Z,99168.02
2023-03-29T09:34:22.413Z,99170.78
2023-03-29T09:35:37.388Z,99175.56
2023-03-29T09:36:53.366Z,99167.25
2023-03-29T09:37:56.291Z,99173.56
2023-03-29T09:38:58.668Z,99176.33
2023-03-29T09:40:06.386Z,99177.09
2023-03-29T09:42:29.816Z,99178.03
2023-03-29T09:43:34.623Z,99188.47
2023-03-29T09:44:42.350Z,99187.23
2023-03-29T09:45:49.534Z,99190.29
2023-03-29T09:46:57.281Z,99182.73
2023-03-29T09:48:07.743Z,99185.51
2023-03-29T09:49:15.458Z,99190.55
2023-03-29T09:51:30.843Z,99191.50
2023-03-29T09:52:33.236Z,99203.92
2023-03-29T09:53:46.321Z,99198.38
2023-03-29T09:56:15.758Z,99206.61
2023-03-29T09:57:29.264Z,99210.45
2023-03-29T09:58:31.856Z,99202.61
2023-03-29T09:59:35.430Z,99208.16
2023-03-29T10:00:38.881Z,99211.69
2023-03-29T10:01:42.238Z,99211.69
2023-03-29T10:02:57.715Z,99218.77
2023-03-29T10:05:20.596Z,99208.61
2023-03-29T10:06:23.381Z,99206.16
2023-03-29T10:07:41.704Z,99210.93
2023-03-29T10:08:55.545Z,99215.23
2023-03-29T10:10:01.169Z,99220.77
2023-03-29T10:11:22.836Z,99208.92
2023-03-29T10:12:25.100Z,99222.02
2023-03-29T10:14:58.225Z,99216.64
2023-03-29T10:16:06.545Z,99223.55
2023-03-29T10:17:16.069Z,99224.78
2023-03-29T10:18:19.244Z,99233.86
2023-03-29T10:19:23.676Z,99229.56
2023-03-29T10:20:26.708Z,99239.12
2023-03-29T10:21:29.164Z,99237.59
2023-03-29T10:22:35.907Z,99237.30
2023-03-29T10:23:37.921Z,99235.00
2023-03-29T10:24:39.850Z,99232.23
2023-03-29T10:25:42.857Z,99241.31
2023-03-29T10:26:45.329Z,99238.54
2023-03-29T10:27:47.775Z,99236.53
2023-03-29T10:28:51.921Z,99237.00
2023-03-29T10:29:54.359Z,99238.25
2023-03-29T10:30:58.640Z,99245.80
2023-03-29T10:32:00.738Z,99235.95
2023-03-29T10:33:03.506Z,99249.04
2023-03-29T10:34:05.968Z,99248.56
2023-03-29T10:35:10.986Z,99235.95
2023-03-29T10:36:13.966Z,99249.04
2023-03-29T10:38:28.751Z,99244.19
2023-03-29T10:39:33.581Z,99251.05
2023-03-29T10:40:44.655Z,99245.50
2023-03-29T10:41:49.469Z,99258.59
2023-03-29T10:42:51.619Z,99253.05
2023-03-29T10:43:54.306Z,99262.89
2023-03-29T10:44:58.810Z,99259.36
2023-03-29T10:47:25.212Z,99264.83
2023-03-29T10:48:29.826Z,99267.38
2023-03-29T10:49:31.865Z,99254.29
2023-03-29T10:50:35.806Z,99270.15
2023-03-29T10:51:37.840Z,99265.38
2023-03-29T10:52:39.779Z,99266.91
2023-03-29T10:53:41.740Z,99269.67
2023-03-29T10:54:43.997Z,99271.98
2023-03-29T10:56:04.256Z,99270.44
2023-03-29T10:57:08.628Z,99272.92
2023-03-29T10:58:26.573Z,99275.41
2023-03-29T11:00:56.926Z,99284.11
2023-03-29T11:02:14.902Z,99281.16
2023-03-29T11:03:32.870Z,99283.63
2023-03-29T11:05:10.394Z,99284.39
2023-03-29T11:08:02.989Z,99271.98
2023-03-29T11:10:52.142Z,99276.28
2023-03-29T11:12:16.618Z,99272.55
2023-03-29T11:13:37.486Z,99277.62
2023-03-29T11:15:03.841Z,99276.08
2023-03-29T11:16:27.083Z,99284.87
2023-03-29T11:17:51.104Z,99279.03
2023-03-29T11:19:21.576Z,99280.75
2023-03-29T11:20:37.441Z,99290.12
2023-03-29T11:22:09.913Z,99281.04
2023-03-29T11:23:44.600Z,99284.58
2023-03-29T11:24:56.845Z,99280.09
2023-03-29T11:30:23.743Z,99275.33
2023-03-29T11:31:52.900Z,99275.88
2023-03-29T11:34:18.350Z,99286.70
2023-03-29T11:35:34.095Z,99282.47
2023-03-29T11:36:59.572Z,99289.55
2023-03-29T11:38:14.233Z,99284.77
2023-03-29T11:39:29.899Z,99288.31
2023-03-29T11:40:49.272Z,99281.23
2023-03-29T11:41:56.525Z,99274.92
2023-03-29T11:42:58.525Z,99280.47
2023-03-29T11:44:05.920Z,99280.47
2023-03-29T11:45:18.215Z,99282.77
2023-03-29T11:46:39.021Z,99286.30
2023-03-29T11:48:47.808Z,99294.14
2023-03-29T11:49:58.991Z,99294.14
2023-03-29T11:51:04.879Z,99289.37
2023-03-29T11:53:37.944Z,99288.82
2023-03-29T11:54:45.746Z,99285.83
2023-03-29T11:55:47.751Z,99308.00
2023-03-29T11:56:54.556Z,99297.68
2023-03-29T11:57:59.728Z,99292.91
2023-03-29T11:59:05.566Z,99301.51
2023-03-29T12:00:27.620Z,99297.97
2023-03-29T12:01:45.475Z,99282.88
2023-03-29T12:03:11.787Z,99297.79
2023-03-29T12:04:19.582Z,99296.55
2023-03-29T12:05:38.772Z,99292.54
2023-03-29T12:06:47.691Z,99291.01
2023-03-29T12:07:59.893Z,99303.62
2023-03-29T12:09:06.130Z,99301.63
2023-03-29T12:11:32.431Z,99305.34
2023-03-29T12:12:56.097Z,99306.69
2023-03-29T12:14:17.027Z,99303.92
2023-03-29T12:15:21.908Z,99301.91
2023-03-29T12:16:37.513Z,99303.92
2023-03-29T12:18:00.626Z,99307.16
2023-03-29T12:20:24.559Z,99305.34
2023-03-29T12:21:28.950Z,99313.47
2023-03-29T12:22:32.191Z,99319.02
2023-03-29T12:23:34.334Z,99310.70
2023-03-29T12:24:38.713Z,99305.16
2023-03-29T12:25:53.156Z,99301.91
2023-03-29T12:27:07.921Z,99311.73
2023-03-29T12:30:09.344Z,99300.09
2023-03-29T12:31:15.587Z,99304.18
2023-03-29T12:32:37.150Z,99315.27
2023-03-29T12:34:03.236Z,99309.72
2023-03-29T12:35:23.461Z,99320.81
2023-03-29T12:40:55.860Z,99322.34
2023-03-29T12:42:20.142Z,99322.34
2023-03-29T12:43:41.284Z,99326.35
2023-03-29T12:46:18.869Z,99332.41
2023-03-29T12:47:23.612Z,99332.95
2023-03-29T12:48:27.547Z,99328.17
2023-03-29T12:50:51.374Z,99327.16
2023-03-29T12:51:54.852Z,99338.79
2023-03-29T12:54:17.224Z,99349.34
2023-03-29T12:56:56.091Z,99344.55
2023-03-29T12:58:01.890Z,99345.39
2023-03-29T13:00:29.461Z,99344.34
2023-03-29T13:02:43.058Z,99341.86
2023-03-29T13:03:49.199Z,99350.28
2023-03-29T13:06:06.352Z,99346.17
2023-03-29T13:07:27.816Z,99350.28
2023-03-29T13:08:39.874Z,99347.52
2023-03-29T13:09:56.534Z,99352.58
2023-03-29T13:10:58.623Z,99342.73
2023-03-29T13:12:12.188Z,99346.27
2023-03-29T13:13:17.115Z,99352.58
2023-03-29T13:14:20.708Z,99351.81
2023-03-29T13:15:24.291Z,99354.59
2023-03-29T13:16:30.647Z,99364.14
2023-03-29T13:17:52.580Z,99358.59
2023-03-29T13:19:07.499Z,99358.59
2023-03-29T13:20:49.873Z,99355.83
2023-03-29T13:22:13.841Z,99357.36
2023-03-29T13:23:42.154Z,99362.91
2023-03-29T13:25:13.692Z,99361.08
2023-03-29T13:27:57.389Z,99371.30
2023-03-29T13:29:21.954Z,99375.89
2023-03-29T13:30:43.085Z,99380.66
2023-03-29T13:31:54.456Z,99377.13
2023-03-29T13:33:16.847Z,99381.90
2023-03-29T13:34:38.034Z,99389.45
2023-03-29T13:35:47.221Z,99383.91
2023-03-29T13:37:10.218Z,99389.45
2023-03-29T13:38:19.036Z,99384.37
2023-03-29T13:39:28.460Z,99393.46
2023-03-29T13:43:12.012Z,99404.02
2023-03-29T13:44:29.197Z,99410.86
2023-03-29T13:45:31.714Z,99408.56
2023-03-29T13:46:40.801Z,99416.11
2023-03-29T13:47:54.973Z,99419.65
2023-03-29T13:51:22.530Z,99432.30
2023-03-29T13:52:30.078Z,99430.09
2023-03-29T13:55:06.947Z,99431.06
2023-03-29T13:56:12.625Z,99431.63
2023-03-29T13:57:26.982Z,99439.94
2023-03-29T13:58:35.809Z,99442.70
2023-03-29T13:59:45.076Z,99437.16
2023-03-29T14:00:54.881Z,99441.47
2023-03-29T14:01:59.306Z,99445.02
2023-03-29T14:03:04.753Z,99445.78
2023-03-29T14:04:06.839Z,99445.78
2023-03-29T14:05:14.226Z,99452.56
2023-03-29T14:06:19.867Z,99455.33
2023-03-29T14:07:22.542Z,99460.87
2023-03-29T14:08:26.856Z,99462.41
2023-03-29T14:09:31.009Z,99458.88
2023-03-29T14:11:46.093Z,99458.31
2023-03-29T14:12:48.431Z,99465.18
2023-03-29T14:13:54.356Z,99473.20
2023-03-29T14:14:59.778Z,99472.44
2023-03-29T14:16:07.768Z,99472.91
2023-03-29T14:17:21.237Z,99472.14
2023-03-29T14:18:24.413Z,99470.13
2023-03-29T14:19:31.072Z,99482.76
2023-03-29T14:20:33.438Z,99474.44
2023-03-29T14:21:36.436Z,99475.97
2023-03-29T14:22:38.445Z,99475.20
2023-03-29T14:23:43.270Z,99478.75
2023-03-29T14:24:53.037Z,99473.20
2023-03-29T14:25:55.046Z,99480.28
2023-03-29T14:26:57.038Z,99483.05
2023-03-29T14:27:59.421Z,99480.75
2023-03-29T14:29:01.789Z,99477.98
2023-03-29T14:30:24.060Z,99478.75
2023-03-29T14:31:31.522Z,99484.29
2023-03-29T14:32:36.674Z,99488.30